sensor_id;sensor_type;location;lat;lon;timestamp;P1;P2;P0
21358;PMS7003;13506;50.852;20.632;2023-05-10T00:00:11;12.20;11.80;5.20
21358;PMS7003;13506;50.852;20.632;2023-05-10T00:03:01;12.00;12.00;6.60
21358;PMS7003;13506;50.852;20.632;2023-05-10T00:05:30;17.60;12.80;6.80
21358;PMS7003;13506;50.852;20.632;2023-05-10T00:07:58;12.80;11.80;6.40
21358;PMS7003;13506;50.852;20.632;2023-05-10T00:10:28;12.80;12.80;7.00
21358;PMS7003;13506;50.852;20.632;2023-05-10T00:12:56;10.80;10.60;6.00
21358;PMS7003;13506;50.852;20.632;2023-05-10T00:15:24;9.00;9.00;4.80
21358;PMS7003;13506;50.852;20.632;2023-05-10T00:17:52;14.40;13.80;7.00
21358;PMS7003;13506;50.852;20.632;2023-05-10T00:20:20;12.60;12.20;7.80
21358;PMS7003;13506;50.852;20.632;2023-05-10T00:22:49;16.40;12.60;7.00
21358;PMS7003;13506;50.852;20.632;2023-05-10T00:25:16;16.80;15.20;7.20
21358;PMS7003;13506;50.852;20.632;2023-05-10T00:27:46;12.80;10.60;4.40
21358;PMS7003;13506;50.852;20.632;2023-05-10T00:30:15;14.80;14.80;8.40
21358;PMS7003;13506;50.852;20.632;2023-05-10T00:32:43;19.40;16.00;9.20
21358;PMS7003;13506;50.852;20.632;2023-05-10T00:35:13;20.20;16.00;7.60
21358;PMS7003;13506;50.852;20.632;2023-05-10T00:37:41;15.00;10.80;6.00
21358;PMS7003;13506;50.852;20.632;2023-05-10T00:40:10;15.00;14.20;8.80
21358;PMS7003;13506;50.852;20.632;2023-05-10T00:42:40;13.60;11.00;6.00
21358;PMS7003;13506;50.852;20.632;2023-05-10T00:45:10;17.00;12.60;7.20
21358;PMS7003;13506;50.852;20.632;2023-05-10T00:47:39;14.60;14.60;8.60
21358;PMS7003;13506;50.852;20.632;2023-05-10T00:50:07;19.20;15.20;8.00
21358;PMS7003;13506;50.852;20.632;2023-05-10T00:52:36;15.40;12.80;7.60
21358;PMS7003;13506;50.852;20.632;2023-05-10T00:55:04;14.80;11.80;5.60
21358;PMS7003;13506;50.852;20.632;2023-05-10T00:57:34;15.60;10.60;6.60
21358;PMS7003;13506;50.852;20.632;2023-05-10T01:00:02;11.60;10.80;4.00
21358;PMS7003;13506;50.852;20.632;2023-05-10T01:02:33;12.20;12.00;6.20
21358;PMS7003;13506;50.852;20.632;2023-05-10T01:05:02;11.60;11.60;4.40
21358;PMS7003;13506;50.852;20.632;2023-05-10T01:07:31;13.80;12.60;7.00
21358;PMS7003;13506;50.852;20.632;2023-05-10T01:09:59;10.40;9.60;5.60
21358;PMS7003;13506;50.852;20.632;2023-05-10T01:12:28;12.20;9.40;4.80
21358;PMS7003;13506;50.852;20.632;2023-05-10T01:14:57;13.60;11.60;6.60
21358;PMS7003;13506;50.852;20.632;2023-05-10T01:17:26;9.20;9.00;6.00
21358;PMS7003;13506;50.852;20.632;2023-05-10T01:19:56;14.80;11.60;5.60
21358;PMS7003;13506;50.852;20.632;2023-05-10T01:22:40;13.20;12.20;7.40
21358;PMS7003;13506;50.852;20.632;2023-05-10T01:25:40;11.80;11.80;6.00
21358;PMS7003;13506;50.852;20.632;2023-05-10T01:28:41;12.00;10.00;4.40
21358;PMS7003;13506;50.852;20.632;2023-05-10T01:34:46;9.60;9.20;4.20
21358;PMS7003;13506;50.852;20.632;2023-05-10T01:37:21;10.00;6.80;3.40
21358;PMS7003;13506;50.852;20.632;2023-05-10T01:39:58;9.60;9.60;4.00
21358;PMS7003;13506;50.852;20.632;2023-05-10T01:42:36;9.80;9.00;4.80
21358;PMS7003;13506;50.852;20.632;2023-05-10T01:45:14;10.80;10.80;5.20
21358;PMS7003;13506;50.852;20.632;2023-05-10T01:47:54;12.20;9.40;4.80
21358;PMS7003;13506;50.852;20.632;2023-05-10T01:50:32;14.20;11.20;5.20
21358;PMS7003;13506;50.852;20.632;2023-05-10T01:53:05;12.40;8.60;3.60
21358;PMS7003;13506;50.852;20.632;2023-05-10T01:55:39;12.00;8.80;5.20
21358;PMS7003;13506;50.852;20.632;2023-05-10T01:58:13;12.80;10.00;6.40
21358;PMS7003;13506;50.852;20.632;2023-05-10T02:00:44;10.40;9.00;5.20
21358;PMS7003;13506;50.852;20.632;2023-05-10T02:03:15;12.80;10.00;6.00
21358;PMS7003;13506;50.852;20.632;2023-05-10T02:05:49;7.00;7.00;3.00
21358;PMS7003;13506;50.852;20.632;2023-05-10T02:08:21;9.20;9.20;4.20
21358;PMS7003;13506;50.852;20.632;2023-05-10T02:10:52;10.40;9.00;4.00
21358;PMS7003;13506;50.852;20.632;2023-05-10T02:13:25;11.00;9.20;4.40
21358;PMS7003;13506;50.852;20.632;2023-05-10T02:15:56;9.60;8.80;4.80
21358;PMS7003;13506;50.852;20.632;2023-05-10T02:18:27;9.00;9.00;4.00
21358;PMS7003;13506;50.852;20.632;2023-05-10T02:20:56;9.20;7.40;4.00
21358;PMS7003;13506;50.852;20.632;2023-05-10T02:23:26;7.00;7.00;4.00
21358;PMS7003;13506;50.852;20.632;2023-05-10T02:25:57;12.00;9.60;5.60
21358;PMS7003;13506;50.852;20.632;2023-05-10T02:28:27;12.60;11.20;5.20
21358;PMS7003;13506;50.852;20.632;2023-05-10T02:30:56;10.60;10.60;5.60
21358;PMS7003;13506;50.852;20.632;2023-05-10T02:33:25;13.00;9.40;4.80
21358;PMS7003;13506;50.852;20.632;2023-05-10T02:35:57;7.00;7.00;4.00
21358;PMS7003;13506;50.852;20.632;2023-05-10T02:38:25;9.80;9.00;4.40
21358;PMS7003;13506;50.852;20.632;2023-05-10T02:40:56;9.00;8.20;4.00
21358;PMS7003;13506;50.852;20.632;2023-05-10T02:43:26;12.80;9.60;4.80
21358;PMS7003;13506;50.852;20.632;2023-05-10T02:45:57;12.60;9.40;5.60
21358;PMS7003;13506;50.852;20.632;2023-05-10T02:48:25;12.00;9.80;4.40
21358;PMS7003;13506;50.852;20.632;2023-05-10T02:50:56;12.20;9.40;4.80
21358;PMS7003;13506;50.852;20.632;2023-05-10T02:53:32;9.60;9.60;6.00
21358;PMS7003;13506;50.852;20.632;2023-05-10T02:56:04;12.00;12.00;6.00
21358;PMS7003;13506;50.852;20.632;2023-05-10T02:58:40;11.60;9.40;5.60
21358;PMS7003;13506;50.852;20.632;2023-05-10T03:01:08;13.60;11.60;6.00
21358;PMS7003;13506;50.852;20.632;2023-05-10T03:03:38;11.60;10.20;5.60
21358;PMS7003;13506;50.852;20.632;2023-05-10T03:06:07;10.00;9.20;4.80
21358;PMS7003;13506;50.852;20.632;2023-05-10T03:08:36;10.00;8.60;5.20
21358;PMS7003;13506;50.852;20.632;2023-05-10T03:11:09;11.20;11.20;7.00
21358;PMS7003;13506;50.852;20.632;2023-05-10T03:13:56;13.00;12.60;5.60
21358;PMS7003;13506;50.852;20.632;2023-05-10T03:16:34;9.00;9.00;6.00
21358;PMS7003;13506;50.852;20.632;2023-05-10T03:19:15;9.80;9.00;4.00
21358;PMS7003;13506;50.852;20.632;2023-05-10T03:21:50;14.00;12.20;6.00
21358;PMS7003;13506;50.852;20.632;2023-05-10T03:24:20;10.00;9.20;4.40
21358;PMS7003;13506;50.852;20.632;2023-05-10T03:26:50;11.00;8.80;5.60
21358;PMS7003;13506;50.852;20.632;2023-05-10T03:29:22;12.40;10.80;6.20
21358;PMS7003;13506;50.852;20.632;2023-05-10T03:31:53;12.00;11.60;6.40
21358;PMS7003;13506;50.852;20.632;2023-05-10T03:34:23;15.00;11.60;6.00
21358;PMS7003;13506;50.852;20.632;2023-05-10T03:36:53;9.20;9.20;4.00
21358;PMS7003;13506;50.852;20.632;2023-05-10T03:39:22;13.20;12.20;6.80
21358;PMS7003;13506;50.852;20.632;2023-05-10T03:41:55;10.00;10.00;6.00
21358;PMS7003;13506;50.852;20.632;2023-05-10T03:44:23;11.40;9.80;4.00
21358;PMS7003;13506;50.852;20.632;2023-05-10T03:46:52;12.00;9.80;4.00
21358;PMS7003;13506;50.852;20.632;2023-05-10T03:49:21;12.00;10.80;5.20
21358;PMS7003;13506;50.852;20.632;2023-05-10T03:51:50;9.40;9.20;3.80
21358;PMS7003;13506;50.852;20.632;2023-05-10T03:54:19;9.00;9.00;4.80
21358;PMS7003;13506;50.852;20.632;2023-05-10T03:56:48;10.40;10.40;6.00
21358;PMS7003;13506;50.852;20.632;2023-05-10T03:59:18;11.40;9.60;4.00
21358;PMS7003;13506;50.852;20.632;2023-05-10T04:01:46;12.60;11.00;6.00
21358;PMS7003;13506;50.852;20.632;2023-05-10T04:04:14;9.80;9.80;5.20
21358;PMS7003;13506;50.852;20.632;2023-05-10T04:06:44;9.40;9.00;4.00
21358;PMS7003;13506;50.852;20.632;2023-05-10T04:09:12;9.80;9.80;4.00
21358;PMS7003;13506;50.852;20.632;2023-05-10T04:11:42;12.80;12.40;7.00
21358;PMS7003;13506;50.852;20.632;2023-05-10T04:14:09;13.20;12.80;6.60
21358;PMS7003;13506;50.852;20.632;2023-05-10T04:16:38;12.20;12.20;6.80
21358;PMS7003;13506;50.852;20.632;2023-05-10T04:19:06;15.00;12.00;6.00
21358;PMS7003;13506;50.852;20.632;2023-05-10T04:21:34;10.00;8.40;4.00
21358;PMS7003;13506;50.852;20.632;2023-05-10T04:24:02;12.60;11.20;5.60
21358;PMS7003;13506;50.852;20.632;2023-05-10T04:26:31;15.00;12.20;6.00
21358;PMS7003;13506;50.852;20.632;2023-05-10T04:29:00;14.40;11.00;6.40
21358;PMS7003;13506;50.852;20.632;2023-05-10T04:31:28;13.00;13.00;7.00
21358;PMS7003;13506;50.852;20.632;2023-05-10T04:33:56;15.80;11.80;6.40
21358;PMS7003;13506;50.852;20.632;2023-05-10T04:36:24;11.00;10.20;5.20
21358;PMS7003;13506;50.852;20.632;2023-05-10T04:38:53;12.80;11.80;5.80
21358;PMS7003;13506;50.852;20.632;2023-05-10T04:41:21;14.40;12.40;6.80
21358;PMS7003;13506;50.852;20.632;2023-05-10T04:43:50;11.00;10.40;5.40
21358;PMS7003;13506;50.852;20.632;2023-05-10T04:46:19;17.60;16.40;8.00
21358;PMS7003;13506;50.852;20.632;2023-05-10T04:48:47;10.40;10.40;5.00
21358;PMS7003;13506;50.852;20.632;2023-05-10T04:51:15;9.60;8.00;4.00
21358;PMS7003;13506;50.852;20.632;2023-05-10T04:53:43;9.60;9.60;4.00
21358;PMS7003;13506;50.852;20.632;2023-05-10T04:56:11;7.20;7.20;4.00
21358;PMS7003;13506;50.852;20.632;2023-05-10T04:58:39;10.40;7.40;3.40
21358;PMS7003;13506;50.852;20.632;2023-05-10T05:01:08;13.25;13.00;7.00
21358;PMS7003;13506;50.852;20.632;2023-05-10T05:03:37;9.20;9.20;5.00
21358;PMS7003;13506;50.852;20.632;2023-05-10T05:06:06;8.40;8.00;4.00
21358;PMS7003;13506;50.852;20.632;2023-05-10T05:08:34;10.00;8.00;4.00
21358;PMS7003;13506;50.852;20.632;2023-05-10T05:11:02;7.60;7.60;3.20
21358;PMS7003;13506;50.852;20.632;2023-05-10T05:13:30;10.60;7.60;4.00
21358;PMS7003;13506;50.852;20.632;2023-05-10T05:15:59;12.75;11.50;5.00
21358;PMS7003;13506;50.852;20.632;2023-05-10T05:18:28;12.60;10.00;5.40
21358;PMS7003;13506;50.852;20.632;2023-05-10T05:20:58;9.20;8.00;4.00
21358;PMS7003;13506;50.852;20.632;2023-05-10T05:23:26;10.80;8.20;3.20
21358;PMS7003;13506;50.852;20.632;2023-05-10T05:25:54;14.20;11.40;5.00
21358;PMS7003;13506;50.852;20.632;2023-05-10T05:28:22;9.20;7.80;4.00
21358;PMS7003;13506;50.852;20.632;2023-05-10T05:30:50;14.00;10.20;6.60
21358;PMS7003;13506;50.852;20.632;2023-05-10T05:33:18;11.00;8.20;4.00
21358;PMS7003;13506;50.852;20.632;2023-05-10T05:35:46;14.20;9.20;4.80
21358;PMS7003;13506;50.852;20.632;2023-05-10T05:38:17;8.00;8.00;4.00
21358;PMS7003;13506;50.852;20.632;2023-05-10T05:40:45;8.60;8.40;4.60
21358;PMS7003;13506;50.852;20.632;2023-05-10T05:43:13;10.00;8.80;4.40
21358;PMS7003;13506;50.852;20.632;2023-05-10T05:45:41;8.40;8.00;4.00
21358;PMS7003;13506;50.852;20.632;2023-05-10T05:48:09;11.80;9.00;5.60
21358;PMS7003;13506;50.852;20.632;2023-05-10T05:50:37;8.20;7.60;4.00
21358;PMS7003;13506;50.852;20.632;2023-05-10T05:53:05;7.60;7.60;4.00
21358;PMS7003;13506;50.852;20.632;2023-05-10T05:55:35;13.00;9.20;4.80
21358;PMS7003;13506;50.852;20.632;2023-05-10T05:58:03;12.00;11.80;5.40
21358;PMS7003;13506;50.852;20.632;2023-05-10T06:00:31;8.00;8.00;4.00
21358;PMS7003;13506;50.852;20.632;2023-05-10T06:02:59;9.20;7.20;3.60
21358;PMS7003;13506;50.852;20.632;2023-05-10T06:05:26;8.20;8.20;4.00
21358;PMS7003;13506;50.852;20.632;2023-05-10T06:07:55;10.00;9.40;3.20
21358;PMS7003;13506;50.852;20.632;2023-05-10T06:10:23;10.40;8.60;4.20
21358;PMS7003;13506;50.852;20.632;2023-05-10T06:12:52;12.20;10.20;4.60
21358;PMS7003;13506;50.852;20.632;2023-05-10T06:15:20;8.80;8.00;3.20
21358;PMS7003;13506;50.852;20.632;2023-05-10T06:17:48;8.80;6.00;3.80
21358;PMS7003;13506;50.852;20.632;2023-05-10T06:20:16;9.20;9.00;4.60
21358;PMS7003;13506;50.852;20.632;2023-05-10T06:22:44;9.40;7.00;3.00
21358;PMS7003;13506;50.852;20.632;2023-05-10T06:25:12;11.00;9.60;5.80
21358;PMS7003;13506;50.852;20.632;2023-05-10T06:27:43;10.00;10.00;5.40
21358;PMS7003;13506;50.852;20.632;2023-05-10T06:30:13;6.80;6.80;4.00
21358;PMS7003;13506;50.852;20.632;2023-05-10T06:32:41;9.20;9.20;5.00
21358;PMS7003;13506;50.852;20.632;2023-05-10T06:35:10;8.80;8.00;3.60
21358;PMS7003;13506;50.852;20.632;2023-05-10T06:37:38;9.00;7.80;5.00
21358;PMS7003;13506;50.852;20.632;2023-05-10T06:40:07;7.20;6.00;2.20
21358;PMS7003;13506;50.852;20.632;2023-05-10T06:42:35;7.00;7.00;3.00
21358;PMS7003;13506;50.852;20.632;2023-05-10T06:45:04;7.20;7.20;3.00
21358;PMS7003;13506;50.852;20.632;2023-05-10T06:47:35;7.00;6.00;3.00
21358;PMS7003;13506;50.852;20.632;2023-05-10T06:50:03;10.00;7.00;3.00
21358;PMS7003;13506;50.852;20.632;2023-05-10T06:52:32;9.40;9.40;4.20
21358;PMS7003;13506;50.852;20.632;2023-05-10T06:55:00;9.80;8.60;4.60
21358;PMS7003;13506;50.852;20.632;2023-05-10T06:57:29;9.00;8.40;3.00
21358;PMS7003;13506;50.852;20.632;2023-05-10T06:59:57;9.40;8.60;3.00
21358;PMS7003;13506;50.852;20.632;2023-05-10T07:02:26;7.40;7.40;4.20
21358;PMS7003;13506;50.852;20.632;2023-05-10T07:04:55;10.00;8.00;5.00
21358;PMS7003;13506;50.852;20.632;2023-05-10T07:07:24;6.40;6.40;2.00
21358;PMS7003;13506;50.852;20.632;2023-05-10T07:09:52;6.00;6.00;3.00
21358;PMS7003;13506;50.852;20.632;2023-05-10T07:12:20;8.20;8.20;3.40
21358;PMS7003;13506;50.852;20.632;2023-05-10T07:14:47;12.40;9.20;5.00
21358;PMS7003;13506;50.852;20.632;2023-05-10T07:17:16;7.60;7.60;3.80
21358;PMS7003;13506;50.852;20.632;2023-05-10T07:19:44;8.20;8.00;4.20
21358;PMS7003;13506;50.852;20.632;2023-05-10T07:22:13;9.80;8.20;5.20
21358;PMS7003;13506;50.852;20.632;2023-05-10T07:24:42;12.80;10.40;6.00
21358;PMS7003;13506;50.852;20.632;2023-05-10T07:27:10;6.20;6.20;2.20
21358;PMS7003;13506;50.852;20.632;2023-05-10T07:29:38;7.60;7.60;4.20
21358;PMS7003;13506;50.852;20.632;2023-05-10T07:32:06;7.80;7.80;3.80
21358;PMS7003;13506;50.852;20.632;2023-05-10T07:34:34;8.00;8.00;5.40
21358;PMS7003;13506;50.852;20.632;2023-05-10T07:37:02;10.00;8.00;5.00
21358;PMS7003;13506;50.852;20.632;2023-05-10T07:39:32;7.80;7.00;3.00
21358;PMS7003;13506;50.852;20.632;2023-05-10T07:42:01;7.00;7.00;2.00
21358;PMS7003;13506;50.852;20.632;2023-05-10T07:44:29;8.80;7.00;4.00
21358;PMS7003;13506;50.852;20.632;2023-05-10T07:46:57;11.00;9.80;5.60
21358;PMS7003;13506;50.852;20.632;2023-05-10T07:49:25;11.60;8.80;5.80
21358;PMS7003;13506;50.852;20.632;2023-05-10T07:51:53;8.80;7.80;4.00
21358;PMS7003;13506;50.852;20.632;2023-05-10T07:54:21;9.20;7.40;3.20
21358;PMS7003;13506;50.852;20.632;2023-05-10T07:56:51;7.40;7.40;3.40
21358;PMS7003;13506;50.852;20.632;2023-05-10T07:59:18;8.00;8.00;4.00
21358;PMS7003;13506;50.852;20.632;2023-05-10T08:01:46;9.80;7.40;3.00
21358;PMS7003;13506;50.852;20.632;2023-05-10T08:04:14;6.80;6.00;3.00
21358;PMS7003;13506;50.852;20.632;2023-05-10T08:06:42;7.80;7.40;3.60
21358;PMS7003;13506;50.852;20.632;2023-05-10T08:09:10;8.00;7.00;3.20
21358;PMS7003;13506;50.852;20.632;2023-05-10T08:11:39;7.60;7.20;3.40
21358;PMS7003;13506;50.852;20.632;2023-05-10T08:14:08;9.20;7.00;3.20
21358;PMS7003;13506;50.852;20.632;2023-05-10T08:16:36;8.00;8.00;3.00
21358;PMS7003;13506;50.852;20.632;2023-05-10T08:19:04;9.20;8.40;4.40
21358;PMS7003;13506;50.852;20.632;2023-05-10T08:21:32;8.20;6.80;3.40
21358;PMS7003;13506;50.852;20.632;2023-05-10T08:24:01;7.00;7.00;2.80
21358;PMS7003;13506;50.852;20.632;2023-05-10T08:26:30;8.80;8.00;3.00
21358;PMS7003;13506;50.852;20.632;2023-05-10T08:28:59;7.60;7.60;3.40
21358;PMS7003;13506;50.852;20.632;2023-05-10T08:31:28;12.40;9.00;4.00
21358;PMS7003;13506;50.852;20.632;2023-05-10T08:33:56;10.40;8.80;5.60
21358;PMS7003;13506;50.852;20.632;2023-05-10T08:36:24;10.80;9.00;5.80
21358;PMS7003;13506;50.852;20.632;2023-05-10T08:38:53;8.80;7.40;3.40
21358;PMS7003;13506;50.852;20.632;2023-05-10T08:41:21;16.00;15.00;8.60
21358;PMS7003;13506;50.852;20.632;2023-05-10T08:43:51;7.60;7.60;3.00
21358;PMS7003;13506;50.852;20.632;2023-05-10T08:46:21;6.60;6.40;3.00
21358;PMS7003;13506;50.852;20.632;2023-05-10T08:48:50;9.60;7.20;3.40
21358;PMS7003;13506;50.852;20.632;2023-05-10T08:51:22;7.20;6.80;3.00
21358;PMS7003;13506;50.852;20.632;2023-05-10T08:53:52;9.60;8.00;3.40
21358;PMS7003;13506;50.852;20.632;2023-05-10T08:56:20;10.60;8.60;4.00
21358;PMS7003;13506;50.852;20.632;2023-05-10T08:58:49;9.60;8.40;4.00
21358;PMS7003;13506;50.852;20.632;2023-05-10T09:01:18;7.40;7.40;3.00
21358;PMS7003;13506;50.852;20.632;2023-05-10T09:03:47;7.20;7.20;3.60
21358;PMS7003;13506;50.852;20.632;2023-05-10T09:06:17;8.00;7.60;3.80
21358;PMS7003;13506;50.852;20.632;2023-05-10T09:08:46;10.60;8.00;3.20
21358;PMS7003;13506;50.852;20.632;2023-05-10T09:11:15;8.20;7.80;3.00
21358;PMS7003;13506;50.852;20.632;2023-05-10T09:13:43;9.80;8.80;4.00
21358;PMS7003;13506;50.852;20.632;2023-05-10T09:16:13;9.80;9.40;6.00
21358;PMS7003;13506;50.852;20.632;2023-05-10T09:18:40;8.00;7.00;3.00
21358;PMS7003;13506;50.852;20.632;2023-05-10T09:21:10;8.00;8.00;3.20
21358;PMS7003;13506;50.852;20.632;2023-05-10T09:23:42;8.60;8.00;4.80
21358;PMS7003;13506;50.852;20.632;2023-05-10T09:26:10;4.60;4.60;2.60
21358;PMS7003;13506;50.852;20.632;2023-05-10T09:28:49;6.20;6.20;3.40
21358;PMS7003;13506;50.852;20.632;2023-05-10T09:31:18;9.40;8.00;3.00
21358;PMS7003;13506;50.852;20.632;2023-05-10T09:33:47;9.00;8.60;4.00
21358;PMS7003;13506;50.852;20.632;2023-05-10T09:36:17;8.00;8.00;4.00
21358;PMS7003;13506;50.852;20.632;2023-05-10T09:38:45;9.00;9.00;4.00
21358;PMS7003;13506;50.852;20.632;2023-05-10T09:41:15;8.20;7.40;3.60
21358;PMS7003;13506;50.852;20.632;2023-05-10T09:43:44;8.00;8.00;3.80
21358;PMS7003;13506;50.852;20.632;2023-05-10T09:46:12;8.60;7.00;3.40
21358;PMS7003;13506;50.852;20.632;2023-05-10T10:20:51;6.00;6.00;3.00
21358;PMS7003;13506;50.852;20.632;2023-05-10T10:23:20;8.80;7.60;2.40
21358;PMS7003;13506;50.852;20.632;2023-05-10T10:25:48;11.20;9.60;4.00
21358;PMS7003;13506;50.852;20.632;2023-05-10T10:28:21;8.80;8.60;4.00
21358;PMS7003;13506;50.852;20.632;2023-05-10T10:30:56;9.20;8.20;4.80
21358;PMS7003;13506;50.852;20.632;2023-05-10T10:33:49;10.40;8.40;4.00
21358;PMS7003;13506;50.852;20.632;2023-05-10T10:36:25;9.20;8.00;3.20
21358;PMS7003;13506;50.852;20.632;2023-05-10T10:39:00;5.40;5.40;3.00
21358;PMS7003;13506;50.852;20.632;2023-05-10T10:41:30;9.40;8.40;4.80
21358;PMS7003;13506;50.852;20.632;2023-05-10T10:47:03;6.60;6.60;3.00
21358;PMS7003;13506;50.852;20.632;2023-05-10T10:49:50;7.20;7.00;3.00
21358;PMS7003;13506;50.852;20.632;2023-05-10T10:52:31;8.60;3.80;2.00
21358;PMS7003;13506;50.852;20.632;2023-05-10T10:55:01;8.00;5.00;3.00
21358;PMS7003;13506;50.852;20.632;2023-05-10T10:57:32;8.00;7.00;3.60
21358;PMS7003;13506;50.852;20.632;2023-05-10T11:00:19;7.40;5.80;3.00
21358;PMS7003;13506;50.852;20.632;2023-05-10T11:02:49;8.60;8.60;4.00
21358;PMS7003;13506;50.852;20.632;2023-05-10T11:08:17;5.00;5.00;2.00
21358;PMS7003;13506;50.852;20.632;2023-05-10T11:11:01;8.00;6.80;3.00
21358;PMS7003;13506;50.852;20.632;2023-05-10T11:13:33;7.60;7.60;3.60
21358;PMS7003;13506;50.852;20.632;2023-05-10T11:16:11;6.60;6.60;2.80
21358;PMS7003;13506;50.852;20.632;2023-05-10T11:18:41;6.20;4.60;2.60
21358;PMS7003;13506;50.852;20.632;2023-05-10T11:21:20;5.40;4.40;2.00
21358;PMS7003;13506;50.852;20.632;2023-05-10T11:23:50;10.20;9.40;5.00
21358;PMS7003;13506;50.852;20.632;2023-05-10T11:26:22;5.60;5.40;3.00
21358;PMS7003;13506;50.852;20.632;2023-05-10T11:28:51;8.00;7.00;3.00
21358;PMS7003;13506;50.852;20.632;2023-05-10T11:31:22;8.00;6.80;3.60
21358;PMS7003;13506;50.852;20.632;2023-05-10T11:33:52;8.00;8.00;3.00
21358;PMS7003;13506;50.852;20.632;2023-05-10T11:36:23;10.20;7.40;3.80
21358;PMS7003;13506;50.852;20.632;2023-05-10T11:38:54;8.00;8.00;3.00
21358;PMS7003;13506;50.852;20.632;2023-05-10T11:41:23;9.00;8.00;4.00
21358;PMS7003;13506;50.852;20.632;2023-05-10T11:43:53;7.80;7.60;3.00
21358;PMS7003;13506;50.852;20.632;2023-05-10T11:46:23;5.80;5.80;3.00
21358;PMS7003;13506;50.852;20.632;2023-05-10T11:48:52;6.80;6.80;3.80
21358;PMS7003;13506;50.852;20.632;2023-05-10T11:51:22;9.80;9.00;3.60
21358;PMS7003;13506;50.852;20.632;2023-05-10T11:53:54;8.00;8.00;3.00
21358;PMS7003;13506;50.852;20.632;2023-05-10T11:56:23;7.00;7.00;3.00
21358;PMS7003;13506;50.852;20.632;2023-05-10T11:58:53;7.60;7.60;3.00
21358;PMS7003;13506;50.852;20.632;2023-05-10T12:01:22;7.00;6.20;2.80
21358;PMS7003;13506;50.852;20.632;2023-05-10T12:03:51;6.20;5.40;2.00
21358;PMS7003;13506;50.852;20.632;2023-05-10T12:06:25;8.80;6.20;3.00
21358;PMS7003;13506;50.852;20.632;2023-05-10T12:08:57;8.00;7.60;4.00
21358;PMS7003;13506;50.852;20.632;2023-05-10T12:11:26;5.00;5.00;2.40
21358;PMS7003;13506;50.852;20.632;2023-05-10T12:13:55;8.00;6.60;3.60
21358;PMS7003;13506;50.852;20.632;2023-05-10T12:16:24;8.80;8.00;4.00
21358;PMS7003;13506;50.852;20.632;2023-05-10T12:18:56;8.40;8.20;3.80
21358;PMS7003;13506;50.852;20.632;2023-05-10T12:21:25;5.00;5.00;2.00
21358;PMS7003;13506;50.852;20.632;2023-05-10T12:23:58;6.80;5.00;2.00
21358;PMS7003;13506;50.852;20.632;2023-05-10T12:26:30;7.20;7.00;2.40
21358;PMS7003;13506;50.852;20.632;2023-05-10T12:29:11;7.20;7.20;3.00
21358;PMS7003;13506;50.852;20.632;2023-05-10T12:31:54;5.80;5.00;2.00
21358;PMS7003;13506;50.852;20.632;2023-05-10T12:34:24;9.20;6.40;3.00
21358;PMS7003;13506;50.852;20.632;2023-05-10T12:36:53;8.40;8.40;4.00
21358;PMS7003;13506;50.852;20.632;2023-05-10T12:39:23;7.40;6.40;3.40
21358;PMS7003;13506;50.852;20.632;2023-05-10T12:41:51;7.20;6.60;3.00
21358;PMS7003;13506;50.852;20.632;2023-05-10T12:44:19;5.00;5.00;3.00
21358;PMS7003;13506;50.852;20.632;2023-05-10T12:46:47;9.40;6.40;3.00
21358;PMS7003;13506;50.852;20.632;2023-05-10T12:49:15;7.60;5.00;3.00
21358;PMS7003;13506;50.852;20.632;2023-05-10T12:51:44;6.00;5.60;2.40
21358;PMS7003;13506;50.852;20.632;2023-05-10T12:54:12;5.00;5.00;3.00
21358;PMS7003;13506;50.852;20.632;2023-05-10T12:56:42;8.00;6.00;3.00
21358;PMS7003;13506;50.852;20.632;2023-05-10T12:59:10;8.20;6.20;3.00
21358;PMS7003;13506;50.852;20.632;2023-05-10T13:01:38;5.20;5.00;2.20
21358;PMS7003;13506;50.852;20.632;2023-05-10T13:04:06;7.80;5.00;2.40
21358;PMS7003;13506;50.852;20.632;2023-05-10T13:06:35;5.00;5.00;2.00
21358;PMS7003;13506;50.852;20.632;2023-05-10T13:09:04;5.40;5.40;2.60
21358;PMS7003;13506;50.852;20.632;2023-05-10T13:11:32;4.80;4.60;2.60
21358;PMS7003;13506;50.852;20.632;2023-05-10T13:14:02;9.00;6.00;3.00
21358;PMS7003;13506;50.852;20.632;2023-05-10T13:16:30;6.80;5.00;2.00
21358;PMS7003;13506;50.852;20.632;2023-05-10T13:18:59;6.80;6.80;3.00
21358;PMS7003;13506;50.852;20.632;2023-05-10T13:21:29;8.80;8.00;3.00
21358;PMS7003;13506;50.852;20.632;2023-05-10T13:23:57;6.20;4.40;2.00
21358;PMS7003;13506;50.852;20.632;2023-05-10T13:26:26;8.60;6.00;3.80
21358;PMS7003;13506;50.852;20.632;2023-05-10T13:28:55;6.40;4.00;2.00
21358;PMS7003;13506;50.852;20.632;2023-05-10T13:31:25;9.80;8.00;3.40
21358;PMS7003;13506;50.852;20.632;2023-05-10T13:33:53;8.00;8.00;3.00
21358;PMS7003;13506;50.852;20.632;2023-05-10T13:36:23;6.80;6.80;3.00
21358;PMS7003;13506;50.852;20.632;2023-05-10T13:38:52;5.40;5.40;3.00
21358;PMS7003;13506;50.852;20.632;2023-05-10T13:41:20;5.80;5.80;3.00
21358;PMS7003;13506;50.852;20.632;2023-05-10T13:43:48;8.60;6.00;3.40
21358;PMS7003;13506;50.852;20.632;2023-05-10T13:46:16;5.00;5.00;2.80
21358;PMS7003;13506;50.852;20.632;2023-05-10T13:48:46;5.20;5.20;2.00
21358;PMS7003;13506;50.852;20.632;2023-05-10T13:51:14;9.20;7.00;3.00
21358;PMS7003;13506;50.852;20.632;2023-05-10T13:53:42;5.40;5.00;3.00
21358;PMS7003;13506;50.852;20.632;2023-05-10T13:56:12;6.80;6.00;3.00
21358;PMS7003;13506;50.852;20.632;2023-05-10T13:58:41;5.00;5.00;2.20
21358;PMS7003;13506;50.852;20.632;2023-05-10T14:01:09;5.40;5.00;2.00
21358;PMS7003;13506;50.852;20.632;2023-05-10T14:03:37;6.40;6.40;3.20
21358;PMS7003;13506;50.852;20.632;2023-05-10T14:06:07;6.20;5.60;3.00
21358;PMS7003;13506;50.852;20.632;2023-05-10T14:08:36;8.00;5.00;2.00
21358;PMS7003;13506;50.852;20.632;2023-05-10T14:11:05;7.40;7.40;3.80
21358;PMS7003;13506;50.852;20.632;2023-05-10T14:13:33;8.00;8.00;3.20
21358;PMS7003;13506;50.852;20.632;2023-05-10T14:16:01;6.20;5.60;2.80
21358;PMS7003;13506;50.852;20.632;2023-05-10T14:18:29;5.80;5.80;3.00
21358;PMS7003;13506;50.852;20.632;2023-05-10T14:20:58;5.20;5.00;2.00
21358;PMS7003;13506;50.852;20.632;2023-05-10T14:23:27;8.40;5.60;3.00
21358;PMS7003;13506;50.852;20.632;2023-05-10T14:25:55;4.20;4.20;2.00
21358;PMS7003;13506;50.852;20.632;2023-05-10T14:28:24;7.80;6.60;3.00
21358;PMS7003;13506;50.852;20.632;2023-05-10T14:30:52;8.00;5.00;2.60
21358;PMS7003;13506;50.852;20.632;2023-05-10T14:33:20;7.80;7.40;3.80
21358;PMS7003;13506;50.852;20.632;2023-05-10T14:35:49;4.60;4.60;2.20
21358;PMS7003;13506;50.852;20.632;2023-05-10T14:38:17;7.60;7.40;3.00
21358;PMS7003;13506;50.852;20.632;2023-05-10T14:40:46;8.80;8.40;4.00
21358;PMS7003;13506;50.852;20.632;2023-05-10T14:43:15;7.60;7.60;4.00
21358;PMS7003;13506;50.852;20.632;2023-05-10T14:45:44;6.80;6.00;2.80
21358;PMS7003;13506;50.852;20.632;2023-05-10T14:48:13;6.00;5.00;2.80
21358;PMS7003;13506;50.852;20.632;2023-05-10T14:50:43;8.00;6.00;3.00
21358;PMS7003;13506;50.852;20.632;2023-05-10T14:53:11;9.60;8.00;5.00
21358;PMS7003;13506;50.852;20.632;2023-05-10T14:55:40;9.00;8.80;4.00
21358;PMS7003;13506;50.852;20.632;2023-05-10T14:58:09;7.80;5.60;3.00
21358;PMS7003;13506;50.852;20.632;2023-05-10T15:00:38;9.60;6.20;3.00